Herentals, Belgium
Current Conditions -  °F | °C
As of 7:25 AM on Thursday 27 Nov 2014 (Local Time) from EBDT Reporting Station
Broken Clouds Broken Clouds  
Wind Chill: 44°   Ceiling: 5000
Heat Index: 46°   Visibility: 6mi
Dew Point: 45°   Wind: 6mph
Humidity: 93%   Direction: 150°SSE
Pressure: 29.77"   Gusts: NA
Location:  51.18°N, 4.83°E
Report Text: EBDT 270625Z 15005KT 9999 SCT020 BKN050 08/07 Q1008 WHT WHT
Loading
Personal Weather Stations






























Interactive Weather Map New forecast layout! Learn more

10-Day Weather Forecast

Advertisements
Track Severe Weather on mobile